Time;durP1;ratioP1;P1;durP2;ratioP2;P2;SDS_P1;SDS_P2;PMS_P1;PMS_P2;Temp;Humidity;BMP_temperature;BMP_pressure;BME280_temperature;BME280_humidity;BME280_pressure;Samples;Min_cycle;Max_cycle;Signal;HPM_P1;HPM_P2
2021/01/28 00:00:45;;;;;;;53.00;19.50;;;7.00;99.90;;;;;;5023686;28;20531;-75
2021/01/28 00:03:12;;;;;;;47.30;19.30;;;7.10;99.90;;;;;;5014561;28;20298;-75
2021/01/28 00:05:43;;;;;;;60.90;21.47;;;7.10;99.90;;;;;;5029497;28;20549;-75
2021/01/28 00:08:11;;;;;;;51.70;18.73;;;7.10;99.90;;;;;;5034337;28;20220;-75
2021/01/28 00:10:38;;;;;;;52.63;20.37;;;7.00;99.90;;;;;;5044964;28;20658;-75
2021/01/28 00:13:07;;;;;;;51.67;18.40;;;7.00;99.90;;;;;;5048270;28;20673;-75
2021/01/28 00:15:35;;;;;;;58.57;19.03;;;7.00;99.90;;;;;;5022511;28;20221;-75
2021/01/28 00:18:03;;;;;;;44.63;18.03;;;7.00;99.90;;;;;;5035032;28;20200;-76
2021/01/28 00:20:37;;;;;;;90.63;20.17;;;6.90;99.90;;;;;;5034178;28;20218;-75
2021/01/28 00:23:05;;;;;;;55.10;18.53;;;6.90;99.90;;;;;;5041365;28;20685;-74
2021/01/28 00:25:32;;;;;;;64.23;20.73;;;7.00;99.90;;;;;;5019267;28;20219;-75
2021/01/28 00:27:58;;;;;;;49.83;18.73;;;7.00;99.90;;;;;;5036453;28;20695;-76
2021/01/28 00:30:28;;;;;;;58.13;18.97;;;7.00;99.90;;;;;;5037108;28;20270;-75
2021/01/28 00:32:55;;;;;;;53.63;19.50;;;7.00;99.90;;;;;;5026919;28;20830;-75
2021/01/28 00:35:36;;;;;;;57.33;19.53;;;7.00;99.90;;;;;;5021436;28;20414;-76
2021/01/28 00:38:11;;;;;;;55.87;19.73;;;6.90;99.90;;;;;;5041733;28;20240;-76
2021/01/28 00:40:37;;;;;;;79.17;20.13;;;6.90;99.90;;;;;;5034959;28;20632;-75
2021/01/28 00:43:04;;;;;;;48.63;18.90;;;6.90;99.90;;;;;;5019079;28;20212;-76
2021/01/28 00:45:32;;;;;;;54.23;18.50;;;6.90;99.90;;;;;;5033715;28;20208;-74
2021/01/28 00:48:01;;;;;;;51.73;20.10;;;7.00;99.90;;;;;;5020535;28;20589;-75
2021/01/28 00:50:30;;;;;;;58.37;19.03;;;6.90;99.90;;;;;;5038766;28;20208;-75
2021/01/28 00:52:57;;;;;;;55.57;20.07;;;6.90;99.90;;;;;;5041433;28;22416;-76
2021/01/28 00:55:24;;;;;;;65.30;19.77;;;6.90;99.90;;;;;;5008949;28;20232;-75
2021/01/28 00:57:51;;;;;;;65.97;20.87;;;6.90;99.90;;;;;;5037996;28;20214;-75
2021/01/28 01:00:23;;;;;;;50.60;17.93;;;6.90;99.90;;;;;;5045153;28;20603;-76
2021/01/28 01:02:50;;;;;;;67.00;20.43;;;6.90;99.90;;;;;;5040518;28;20259;-75
2021/01/28 01:05:20;;;;;;;65.57;20.23;;;7.00;99.90;;;;;;5024468;28;20212;-75
2021/01/28 01:07:48;;;;;;;66.10;21.97;;;6.80;99.90;;;;;;5033776;28;20217;-75
2021/01/28 01:10:24;;;;;;;54.50;21.27;;;6.90;99.90;;;;;;5029335;28;20604;-75
2021/01/28 01:12:51;;;;;;;75.63;19.67;;;6.90;99.90;;;;;;5042892;28;20203;-75
2021/01/28 01:15:17;;;;;;;58.20;20.23;;;7.00;99.90;;;;;;5043508;28;20200;-76
2021/01/28 01:17:44;;;;;;;66.77;20.10;;;7.00;99.90;;;;;;5030049;28;20208;-75
2021/01/28 01:20:11;;;;;;;60.73;21.47;;;7.00;99.90;;;;;;5027312;28;20653;-75
2021/01/28 01:22:37;;;;;;;63.13;20.47;;;7.00;99.90;;;;;;5039329;28;20387;-76
2021/01/28 01:25:05;;;;;;;60.00;22.37;;;7.10;99.90;;;;;;5040707;28;20248;-76
2021/01/28 01:27:32;;;;;;;63.37;20.87;;;7.20;99.90;;;;;;5021131;28;20238;-76
2021/01/28 01:29:58;;;;;;;74.87;21.40;;;7.10;99.90;;;;;;5037190;28;20611;-76
2021/01/28 01:32:24;;;;;;;67.43;21.87;;;7.20;99.90;;;;;;5039568;28;20221;-75
2021/01/28 01:34:51;;;;;;;64.93;20.73;;;7.10;99.90;;;;;;5038232;28;20220;-76
2021/01/28 01:37:17;;;;;;;71.77;20.23;;;7.10;99.90;;;;;;5041716;28;20198;-76
2021/01/28 01:39:44;;;;;;;64.57;20.83;;;7.00;99.90;;;;;;5044187;28;20207;-76
2021/01/28 01:42:10;;;;;;;96.33;22.20;;;7.00;99.90;;;;;;5021066;28;20219;-75
2021/01/28 01:44:36;;;;;;;72.87;21.17;;;7.10;99.90;;;;;;5012878;28;20228;-75
2021/01/28 01:47:32;;;;;;;64.23;20.57;;;7.10;99.90;;;;;;5023905;28;20233;-76
2021/01/28 01:49:59;;;;;;;61.73;21.20;;;7.40;99.90;;;;;;5003520;28;20200;-76
2021/01/28 01:52:30;;;;;;;59.60;21.67;;;7.30;99.90;;;;;;5026477;28;20197;-76
2021/01/28 01:54:57;;;;;;;84.00;20.93;;;7.20;99.90;;;;;;5046275;28;20248;-76
2021/01/28 01:57:29;;;;;;;74.13;22.33;;;7.10;99.90;;;;;;5051756;28;20213;-75
2021/01/28 02:00:08;;;;;;;89.97;20.87;;;7.10;99.90;;;;;;5033033;28;20232;-75
2021/01/28 02:02:39;;;;;;;95.00;22.90;;;7.00;99.90;;;;;;5016985;28;20201;-75
2021/01/28 02:05:15;;;;;;;73.60;20.70;;;7.10;99.90;;;;;;5024580;28;20200;-75
2021/01/28 02:07:42;;;;;;;68.13;20.53;;;7.10;99.90;;;;;;5040249;28;20671;-75
2021/01/28 02:10:13;;;;;;;80.67;20.13;;;7.10;99.90;;;;;;5025360;28;20193;-75
2021/01/28 02:12:40;;;;;;;93.93;20.50;;;7.10;99.90;;;;;;5038812;28;20327;-75
2021/01/28 02:15:07;;;;;;;72.20;20.47;;;7.20;99.90;;;;;;5035256;28;20196;-76
2021/01/28 02:17:36;;;;;;;75.90;19.23;;;7.20;99.90;;;;;;5028435;28;20204;-75
2021/01/28 02:20:05;;;;;;;93.63;19.50;;;7.40;99.90;;;;;;5028766;28;20269;-76
2021/01/28 02:22:56;;;;;;;64.20;20.03;;;7.40;99.90;;;;;;5040010;28;20216;-75
2021/01/28 02:25:37;;;;;;;67.93;20.23;;;7.20;99.90;;;;;;5037658;28;20570;-76
2021/01/28 02:28:10;;;;;;;56.17;19.17;;;7.30;99.90;;;;;;5029931;28;20610;-76
2021/01/28 02:30:38;;;;;;;64.37;20.93;;;7.40;99.90;;;;;;5012575;28;20594;-76
2021/01/28 02:33:10;;;;;;;56.53;20.40;;;7.50;99.90;;;;;;5028546;28;20228;-76
2021/01/28 02:35:38;;;;;;;68.27;18.23;;;7.50;99.90;;;;;;5022334;28;20270;-76
2021/01/28 02:38:08;;;;;;;59.87;18.40;;;7.50;99.90;;;;;;5019113;28;20245;-76
2021/01/28 02:40:35;;;;;;;47.40;17.53;;;7.60;99.90;;;;;;5043049;28;20200;-76
2021/01/28 02:43:02;;;;;;;43.53;16.93;;;7.60;99.90;;;;;;5040470;28;20315;-76
2021/01/28 02:45:32;;;;;;;61.60;19.03;;;7.60;99.90;;;;;;5046893;28;20535;-75
2021/01/28 02:48:11;;;;;;;50.97;17.47;;;7.50;99.90;;;;;;5019699;28;20227;-75
2021/01/28 02:50:38;;;;;;;59.07;18.60;;;7.30;99.90;;;;;;5036695;28;20194;-74
2021/01/28 02:53:06;;;;;;;58.77;17.23;;;7.30;99.90;;;;;;5027151;28;20659;-74
2021/01/28 02:55:34;;;;;;;51.90;18.07;;;7.20;99.90;;;;;;5036374;28;20245;-74
2021/01/28 02:58:01;;;;;;;48.10;17.57;;;7.40;99.90;;;;;;5043182;28;20303;-74
2021/01/28 03:00:33;;;;;;;61.57;15.90;;;7.50;99.90;;;;;;5044726;28;20201;-77
2021/01/28 03:03:04;;;;;;;48.53;18.00;;;7.10;99.90;;;;;;5045526;28;20209;-76
2021/01/28 03:05:31;;;;;;;53.70;16.57;;;7.20;99.90;;;;;;5030609;28;21102;-76
2021/01/28 03:07:57;;;;;;;49.20;16.43;;;7.40;99.90;;;;;;5033964;28;20697;-76
2021/01/28 03:10:25;;;;;;;61.40;15.90;;;7.30;99.90;;;;;;5023910;28;20286;-76
2021/01/28 03:12:51;;;;;;;56.00;16.23;;;7.10;99.90;;;;;;5042247;28;20856;-76
2021/01/28 03:15:20;;;;;;;48.63;15.53;;;7.00;99.90;;;;;;5033237;28;20197;-76
2021/01/28 03:17:47;;;;;;;43.07;15.33;;;7.00;99.90;;;;;;5038461;28;20249;-76
2021/01/28 03:20:14;;;;;;;40.60;15.07;;;7.10;99.90;;;;;;5021418;28;20350;-76
2021/01/28 03:22:41;;;;;;;48.60;15.70;;;7.20;99.90;;;;;;5041064;28;20530;-76
2021/01/28 03:25:10;;;;;;;46.33;14.40;;;7.30;99.90;;;;;;5036963;28;20199;-76
2021/01/28 03:27:37;;;;;;;57.83;15.60;;;7.20;99.90;;;;;;5012781;28;20240;-77
2021/01/28 03:30:13;;;;;;;36.93;15.13;;;7.40;99.90;;;;;;5034406;28;20709;-74
2021/01/28 03:32:39;;;;;;;42.90;13.10;;;7.30;99.90;;;;;;5040900;28;20232;-77
2021/01/28 03:35:08;;;;;;;49.63;13.07;;;7.20;99.90;;;;;;5021971;28;20198;-77
2021/01/28 03:37:34;;;;;;;38.10;13.20;;;7.20;99.90;;;;;;5013813;28;20209;-76
2021/01/28 03:40:02;;;;;;;34.07;14.10;;;7.20;99.90;;;;;;5007825;28;20210;-76
2021/01/28 03:42:28;;;;;;;55.87;13.77;;;7.10;99.90;;;;;;5042626;28;20678;-77
2021/01/28 03:44:54;;;;;;;45.73;13.83;;;7.20;99.90;;;;;;5034953;28;20199;-76
2021/01/28 03:47:21;;;;;;;35.03;12.37;;;7.30;99.90;;;;;;5019499;28;20271;-74
2021/01/28 03:49:47;;;;;;;64.73;12.70;;;7.30;99.90;;;;;;5040517;28;20553;-74
2021/01/28 03:52:14;;;;;;;42.90;14.07;;;7.30;99.90;;;;;;5019468;28;20215;-74
2021/01/28 03:54:40;;;;;;;39.80;13.60;;;7.40;99.90;;;;;;5025251;28;20228;-76
2021/01/28 03:57:07;;;;;;;51.20;13.47;;;7.40;99.90;;;;;;5019842;28;20375;-77
2021/01/28 03:59:34;;;;;;;43.60;12.53;;;7.40;99.90;;;;;;5041486;28;20547;-76
2021/01/28 04:02:01;;;;;;;41.73;12.03;;;7.50;99.90;;;;;;5022143;28;20203;-77
2021/01/28 04:04:27;;;;;;;42.97;12.53;;;7.40;99.90;;;;;;5032241;28;20282;-75
2021/01/28 04:06:54;;;;;;;37.50;13.87;;;7.50;99.90;;;;;;5020022;28;20203;-74
2021/01/28 04:09:20;;;;;;;44.70;12.73;;;7.50;99.90;;;;;;5018236;28;20658;-75
2021/01/28 04:11:47;;;;;;;40.70;12.97;;;7.50;99.90;;;;;;5024092;28;20201;-75
2021/01/28 04:14:14;;;;;;;54.13;12.73;;;7.50;99.90;;;;;;5018781;28;20195;-74
2021/01/28 04:16:41;;;;;;;41.87;13.20;;;7.50;99.90;;;;;;5027871;28;20376;-74
2021/01/28 04:19:07;;;;;;;44.80;13.27;;;7.50;99.90;;;;;;5022224;28;20350;-75
2021/01/28 04:21:36;;;;;;;49.50;13.70;;;7.60;99.90;;;;;;5022828;28;20218;-75
2021/01/28 04:24:03;;;;;;;41.53;14.40;;;7.60;99.90;;;;;;5038803;28;21095;-75
2021/01/28 04:26:30;;;;;;;62.27;13.07;;;7.70;99.90;;;;;;5036691;28;20208;-75
2021/01/28 04:28:56;;;;;;;51.93;11.97;;;7.70;99.90;;;;;;5026413;28;20235;-76
2021/01/28 04:31:23;;;;;;;34.00;12.50;;;7.60;99.90;;;;;;5048150;28;20240;-75
2021/01/28 04:33:49;;;;;;;34.90;12.23;;;7.60;99.90;;;;;;5029990;28;20197;-77
2021/01/28 04:36:16;;;;;;;26.43;11.17;;;7.50;99.90;;;;;;5028338;28;20243;-75
2021/01/28 04:38:43;;;;;;;29.03;10.63;;;7.40;99.90;;;;;;5022092;28;20231;-75
2021/01/28 04:41:26;;;;;;;35.73;11.77;;;7.30;99.90;;;;;;5017945;28;20685;-75
2021/01/28 04:43:55;;;;;;;29.37;10.80;;;7.40;99.90;;;;;;5039431;28;20226;-75
2021/01/28 04:46:29;;;;;;;25.70;9.67;;;7.30;99.90;;;;;;5039364;28;20209;-74
2021/01/28 04:48:58;;;;;;;28.33;10.73;;;7.30;99.90;;;;;;5031026;28;20299;-75
2021/01/28 04:51:30;;;;;;;24.50;8.57;;;7.40;99.90;;;;;;5043096;28;20648;-75
2021/01/28 04:54:08;;;;;;;23.07;9.07;;;7.20;99.90;;;;;;5024121;28;20198;-74
2021/01/28 04:56:34;;;;;;;24.03;9.37;;;7.20;99.90;;;;;;5045461;28;20259;-75
2021/01/28 04:59:21;;;;;;;20.40;8.33;;;7.30;99.90;;;;;;5041210;28;20565;-75
2021/01/28 05:01:48;;;;;;;23.63;9.10;;;7.30;99.90;;;;;;5027308;28;20208;-75
2021/01/28 05:04:17;;;;;;;22.83;8.83;;;7.20;99.90;;;;;;5040297;28;20238;-74
2021/01/28 05:06:44;;;;;;;22.27;9.10;;;7.20;99.90;;;;;;5027194;28;20654;-77
2021/01/28 05:09:12;;;;;;;23.47;8.60;;;7.20;99.90;;;;;;5001336;28;20291;-76
2021/01/28 05:11:39;;;;;;;18.93;7.53;;;7.10;99.90;;;;;;5037922;28;20269;-76
2021/01/28 05:14:38;;;;;;;16.87;7.60;;;7.10;99.90;;;;;;5021474;28;20973;-74
2021/01/28 05:17:05;;;;;;;16.30;7.17;;;7.20;99.90;;;;;;4995614;28;20277;-75
2021/01/28 05:19:41;;;;;;;19.07;8.13;;;7.10;99.90;;;;;;5035905;28;20204;-77
2021/01/28 05:22:16;;;;;;;21.40;8.40;;;7.00;99.90;;;;;;5032807;28;20244;-77
2021/01/28 05:25:24;;;;;;;17.13;8.27;;;7.20;99.90;;;;;;5045501;28;20209;-76
2021/01/28 05:27:50;;;;;;;16.37;7.37;;;7.10;99.90;;;;;;5045744;28;20220;-76
2021/01/28 05:30:38;;;;;;;17.63;6.97;;;7.10;99.90;;;;;;5023411;28;20667;-75
2021/01/28 05:33:27;;;;;;;17.60;6.60;;;7.00;99.90;;;;;;5040035;28;20230;-76
2021/01/28 05:36:05;;;;;;;16.47;6.70;;;7.10;99.90;;;;;;5047412;28;21805;-75
2021/01/28 05:38:54;;;;;;;15.90;6.90;;;7.00;99.90;;;;;;5034845;28;20197;-75
2021/01/28 05:41:29;;;;;;;15.03;6.73;;;7.00;99.90;;;;;;5049373;28;20211;-75
2021/01/28 05:43:56;;;;;;;13.47;5.80;;;6.90;99.90;;;;;;5029564;28;20287;-75
2021/01/28 05:46:28;;;;;;;14.17;5.90;;;7.00;99.90;;;;;;5017739;28;20268;-76
2021/01/28 05:49:11;;;;;;;10.00;4.77;;;6.90;99.90;;;;;;5021049;28;20220;-77
2021/01/28 05:51:43;;;;;;;11.83;4.43;;;6.90;99.90;;;;;;5017101;28;20194;-75
2021/01/28 05:54:18;;;;;;;10.97;5.20;;;6.80;99.90;;;;;;5037456;28;20199;-76
2021/01/28 05:57:02;;;;;;;9.93;4.77;;;6.80;99.90;;;;;;5044391;28;20253;-75
2021/01/28 05:59:37;;;;;;;9.50;4.03;;;6.90;99.90;;;;;;5034631;28;20232;-75
2021/01/28 06:02:26;;;;;;;7.67;3.77;;;6.80;99.90;;;;;;5050933;28;20204;-75
2021/01/28 06:05:35;;;;;;;9.10;3.87;;;6.80;99.90;;;;;;5043182;28;20206;-74
2021/01/28 06:08:25;;;;;;;5.30;3.50;;;6.80;99.90;;;;;;5033724;28;20220;-75
2021/01/28 06:11:16;;;;;;;7.03;3.57;;;6.80;99.90;;;;;;5044392;28;20664;-75
2021/01/28 06:14:17;;;;;;;7.37;3.50;;;6.70;99.90;;;;;;5034780;28;20206;-75
2021/01/28 06:17:08;;;;;;;7.57;3.67;;;6.80;99.90;;;;;;5049414;28;20663;-76
2021/01/28 06:19:53;;;;;;;6.20;3.77;;;6.90;99.90;;;;;;5049112;28;20203;-75
2021/01/28 06:22:42;;;;;;;7.93;3.90;;;6.80;99.90;;;;;;5042663;28;20195;-75
2021/01/28 06:25:47;;;;;;;6.67;3.23;;;6.70;99.90;;;;;;5041227;28;20410;-76
2021/01/28 06:28:41;;;;;;;6.53;3.33;;;6.60;99.90;;;;;;5046316;28;20236;-75
2021/01/28 06:31:46;;;;;;;6.17;3.20;;;6.60;99.90;;;;;;5039084;28;20195;-75
2021/01/28 06:34:50;;;;;;;4.77;2.80;;;6.60;99.90;;;;;;5033181;28;20202;-76
2021/01/28 06:37:28;;;;;;;6.73;3.30;;;6.70;99.90;;;;;;5034135;28;20200;-76
2021/01/28 06:39:56;;;;;;;5.97;3.23;;;6.60;99.90;;;;;;5037886;28;20206;-75
2021/01/28 06:42:39;;;;;;;6.70;3.17;;;6.60;99.90;;;;;;5041633;28;20256;-75
2021/01/28 06:45:12;;;;;;;5.00;3.43;;;6.60;99.90;;;;;;5041335;28;20196;-76
2021/01/28 06:47:59;;;;;;;4.87;2.63;;;6.60;99.90;;;;;;5032272;28;20229;-76
2021/01/28 06:50:58;;;;;;;7.77;3.13;;;6.50;99.90;;;;;;5024771;28;20232;-77
2021/01/28 06:53:29;;;;;;;5.83;2.83;;;6.40;99.90;;;;;;5036228;28;20200;-77
2021/01/28 06:56:08;;;;;;;5.13;2.77;;;6.40;99.90;;;;;;5038793;28;20709;-77
2021/01/28 06:58:43;;;;;;;4.30;2.77;;;6.40;99.90;;;;;;5045692;28;20203;-76
2021/01/28 07:01:42;;;;;;;4.10;2.30;;;6.30;99.90;;;;;;5028484;28;20267;-77
2021/01/28 07:04:27;;;;;;;8.23;3.03;;;6.50;99.90;;;;;;5016943;28;20312;-76
2021/01/28 07:07:08;;;;;;;6.83;3.00;;;6.60;99.90;;;;;;5032692;28;20607;-76
2021/01/28 07:10:00;;;;;;;5.57;2.90;;;6.50;99.90;;;;;;5045292;28;20847;-76
2021/01/28 07:12:36;;;;;;;6.47;3.17;;;6.50;99.90;;;;;;5015076;28;20313;-76
2021/01/28 07:15:04;;;;;;;6.03;3.00;;;6.30;99.90;;;;;;5026671;28;20238;-76
2021/01/28 07:17:44;;;;;;;5.67;3.03;;;6.30;99.90;;;;;;5036059;28;20237;-76
2021/01/28 07:20:31;;;;;;;3.77;2.30;;;6.20;99.90;;;;;;5030665;28;20295;-76
2021/01/28 07:23:27;;;;;;;4.30;2.90;;;6.20;99.90;;;;;;5039584;28;20258;-77
2021/01/28 07:26:17;;;;;;;5.17;2.67;;;6.20;99.90;;;;;;5043802;28;20230;-76
2021/01/28 07:28:45;;;;;;;5.57;2.80;;;6.20;99.90;;;;;;5036506;28;20603;-74
2021/01/28 07:31:41;;;;;;;4.70;2.73;;;6.20;99.90;;;;;;5041091;28;20209;-75
2021/01/28 07:34:15;;;;;;;5.77;3.07;;;6.10;99.90;;;;;;5026052;28;20217;-76
2021/01/28 07:36:45;;;;;;;5.23;2.93;;;6.20;99.90;;;;;;5019405;28;20205;-75
2021/01/28 07:39:32;;;;;;;5.37;3.00;;;6.10;99.90;;;;;;5042375;28;20614;-75
2021/01/28 07:42:04;;;;;;;5.10;2.87;;;6.20;99.90;;;;;;5023003;28;20309;-77
2021/01/28 07:44:37;;;;;;;6.07;2.70;;;6.20;99.90;;;;;;5040549;28;21014;-76
2021/01/28 07:47:05;;;;;;;5.80;3.10;;;6.30;99.90;;;;;;5045236;28;20327;-76
2021/01/28 07:49:33;;;;;;;6.00;3.67;;;6.20;99.90;;;;;;5016649;28;20226;-75
2021/01/28 07:52:03;;;;;;;5.20;2.40;;;6.20;99.90;;;;;;5021696;28;20246;-76
2021/01/28 07:54:29;;;;;;;3.47;2.37;;;6.20;99.90;;;;;;5036983;28;20264;-76
2021/01/28 07:57:10;;;;;;;5.13;2.87;;;6.20;99.90;;;;;;5035109;28;20290;-77
2021/01/28 08:00:04;;;;;;;4.50;2.70;;;6.20;99.90;;;;;;5028794;28;20575;-76
2021/01/28 08:02:37;;;;;;;4.47;2.83;;;6.20;99.90;;;;;;5024271;28;20204;-76
2021/01/28 08:05:03;;;;;;;4.33;2.70;;;6.10;99.90;;;;;;5020435;28;20286;-76
2021/01/28 08:08:01;;;;;;;3.63;2.47;;;6.20;99.90;;;;;;5038554;28;20212;-77
2021/01/28 08:10:32;;;;;;;4.40;2.53;;;6.30;99.90;;;;;;5037643;28;20197;-76
2021/01/28 08:13:14;;;;;;;3.07;2.30;;;6.20;99.90;;;;;;5028164;28;20527;-75
2021/01/28 08:16:09;;;;;;;3.77;2.60;;;6.20;99.90;;;;;;5027848;28;20210;-76
2021/01/28 08:18:43;;;;;;;3.00;2.17;;;6.30;99.90;;;;;;5041750;28;20215;-76
2021/01/28 08:21:11;;;;;;;3.93;2.37;;;6.40;99.90;;;;;;5041326;28;20610;-76
2021/01/28 08:23:42;;;;;;;4.13;2.43;;;6.40;99.90;;;;;;5042600;28;20347;-76
2021/01/28 08:28:38;;;;;;;3.97;2.50;;;6.20;99.90;;;;;;5041797;28;20692;-76
2021/01/28 08:31:31;;;;;;;2.83;2.43;;;6.30;99.90;;;;;;5032391;28;20269;-75
2021/01/28 08:34:01;;;;;;;6.80;2.87;;;6.30;99.90;;;;;;5019787;28;20330;-73
2021/01/28 08:36:32;;;;;;;3.50;2.43;;;6.30;99.90;;;;;;5023582;28;20274;-74
2021/01/28 08:39:15;;;;;;;3.43;2.50;;;6.30;99.90;;;;;;5030849;28;20202;-74
2021/01/28 08:41:43;;;;;;;3.33;2.37;;;6.20;99.90;;;;;;5032150;28;20275;-74
2021/01/28 08:44:15;;;;;;;3.23;2.03;;;6.10;99.90;;;;;;5024390;28;20228;-74
2021/01/28 08:46:44;;;;;;;4.47;2.20;;;6.10;99.90;;;;;;5045229;28;21063;-74
2021/01/28 08:49:14;;;;;;;4.37;2.20;;;6.10;99.90;;;;;;5026239;28;20202;-73
2021/01/28 08:51:44;;;;;;;3.27;2.30;;;6.10;99.90;;;;;;5027103;28;20513;-74
2021/01/28 08:54:32;;;;;;;3.27;1.80;;;6.10;99.90;;;;;;5029106;28;20236;-74
2021/01/28 08:57:00;;;;;;;7.10;2.57;;;6.00;99.90;;;;;;5035159;28;20247;-75
2021/01/28 08:59:44;;;;;;;3.47;2.23;;;6.00;99.90;;;;;;5028364;28;20200;-75
2021/01/28 09:02:18;;;;;;;5.40;2.27;;;6.10;99.90;;;;;;5027820;28;21431;-73
2021/01/28 09:04:50;;;;;;;3.10;2.20;;;6.00;99.90;;;;;;5025225;28;20702;-74
2021/01/28 09:07:44;;;;;;;2.87;1.90;;;6.00;99.90;;;;;;5044638;28;20278;-73
2021/01/28 09:10:11;;;;;;;3.17;2.03;;;6.10;99.90;;;;;;5031630;28;20197;-74
2021/01/28 09:12:37;;;;;;;3.63;2.03;;;6.10;99.90;;;;;;5015059;28;20196;-73
2021/01/28 09:15:22;;;;;;;3.13;2.10;;;6.10;99.90;;;;;;5029173;28;20299;-74
2021/01/28 09:17:50;;;;;;;3.93;2.27;;;6.20;99.90;;;;;;5031388;28;20216;-73
2021/01/28 09:20:30;;;;;;;2.67;1.90;;;6.20;99.90;;;;;;5026780;28;20258;-74
2021/01/28 09:23:12;;;;;;;2.57;2.00;;;6.20;99.90;;;;;;5026235;28;21621;-73
2021/01/28 09:25:40;;;;;;;6.07;3.27;;;6.20;99.90;;;;;;5022960;28;20216;-74
2021/01/28 09:28:23;;;;;;;2.97;1.80;;;6.30;99.90;;;;;;5026493;28;20665;-74
2021/01/28 09:30:53;;;;;;;3.10;2.00;;;6.20;99.90;;;;;;5029851;28;20292;-73
2021/01/28 09:33:34;;;;;;;2.83;2.17;;;6.20;99.90;;;;;;5029414;28;20282;-74
2021/01/28 09:36:10;;;;;;;3.20;2.30;;;6.20;99.90;;;;;;5027333;28;20197;-73
2021/01/28 09:38:40;;;;;;;3.87;2.20;;;6.20;99.90;;;;;;5039037;28;20200;-73
2021/01/28 09:41:11;;;;;;;2.73;2.00;;;6.20;99.90;;;;;;5010476;28;20226;-72
2021/01/28 09:43:38;;;;;;;2.63;1.73;;;6.20;99.90;;;;;;5012211;28;20210;-74
2021/01/28 09:46:19;;;;;;;5.73;2.30;;;6.10;99.90;;;;;;5015531;28;20223;-73
2021/01/28 09:48:52;;;;;;;3.27;2.17;;;6.10;99.90;;;;;;5016339;28;20776;-72
2021/01/28 09:51:36;;;;;;;3.37;2.23;;;6.20;99.90;;;;;;5017875;28;20633;-73
2021/01/28 09:54:02;;;;;;;4.00;2.17;;;6.20;99.90;;;;;;5014347;28;20213;-72
2021/01/28 09:56:30;;;;;;;3.00;2.07;;;6.20;99.90;;;;;;5010985;28;20297;-73
2021/01/28 09:58:56;;;;;;;4.17;1.70;;;6.20;99.90;;;;;;4996332;28;20239;-74
2021/01/28 10:01:24;;;;;;;1.87;1.50;;;6.20;99.90;;;;;;5014769;28;20637;-74
2021/01/28 10:03:50;;;;;;;2.73;1.70;;;6.30;99.90;;;;;;5009897;28;20205;-74
2021/01/28 10:06:17;;;;;;;2.87;2.10;;;6.20;99.90;;;;;;5012465;28;20255;-73
2021/01/28 10:08:43;;;;;;;2.57;2.07;;;6.30;99.90;;;;;;5002374;28;20263;-73
2021/01/28 10:11:10;;;;;;;2.57;1.70;;;6.30;99.90;;;;;;5004227;28;20292;-73
2021/01/28 10:13:37;;;;;;;3.47;2.10;;;6.30;99.90;;;;;;5014438;28;20263;-73
2021/01/28 10:16:03;;;;;;;3.83;2.17;;;6.30;99.90;;;;;;5013463;28;20273;-74
2021/01/28 10:18:30;;;;;;;2.33;1.57;;;6.20;99.90;;;;;;5009331;28;20201;-73
2021/01/28 10:20:56;;;;;;;3.80;2.10;;;6.20;99.90;;;;;;4995561;28;20196;-74
2021/01/28 10:23:23;;;;;;;2.53;1.80;;;6.30;99.90;;;;;;5022771;28;20232;-72
2021/01/28 10:25:49;;;;;;;4.10;2.00;;;6.30;99.90;;;;;;5001578;28;20198;-73
2021/01/28 10:28:16;;;;;;;3.87;2.07;;;6.30;99.90;;;;;;5002378;28;20265;-73
2021/01/28 10:30:42;;;;;;;2.87;1.93;;;6.30;99.90;;;;;;5004795;28;20286;-73
2021/01/28 10:33:11;;;;;;;1.80;1.50;;;6.30;99.90;;;;;;5013718;28;20283;-73
2021/01/28 10:35:38;;;;;;;2.30;1.80;;;6.30;99.90;;;;;;5044402;28;20207;-74
2021/01/28 10:38:06;;;;;;;3.13;2.10;;;6.50;99.90;;;;;;5013808;28;20288;-73
2021/01/28 10:40:33;;;;;;;3.10;2.07;;;6.40;99.90;;;;;;5013616;28;20197;-72
2021/01/28 10:43:03;;;;;;;2.60;1.77;;;6.30;99.90;;;;;;5013982;28;20511;-73
2021/01/28 10:45:33;;;;;;;2.33;1.70;;;6.30;99.90;;;;;;5013986;28;21399;-72
2021/01/28 10:48:01;;;;;;;2.03;1.60;;;6.40;99.90;;;;;;5013112;28;20253;-74
2021/01/28 10:50:31;;;;;;;2.30;1.90;;;6.40;99.90;;;;;;5012263;28;20201;-73
2021/01/28 10:52:57;;;;;;;1.90;1.37;;;6.40;99.90;;;;;;5016129;28;20277;-74
2021/01/28 10:55:26;;;;;;;3.70;2.27;;;6.50;99.90;;;;;;5016238;28;20251;-74
2021/01/28 10:57:52;;;;;;;2.60;2.27;;;6.50;99.90;;;;;;5014961;28;20216;-74
2021/01/28 11:00:20;;;;;;;2.60;1.70;;;6.40;99.90;;;;;;5015012;28;20204;-73
2021/01/28 11:02:46;;;;;;;2.77;1.83;;;6.50;99.90;;;;;;5009936;28;20209;-75
2021/01/28 11:05:29;;;;;;;3.30;2.10;;;6.50;99.90;;;;;;5005172;28;20570;-74
2021/01/28 11:07:55;;;;;;;3.43;2.00;;;6.60;99.90;;;;;;5011680;28;20217;-73
2021/01/28 11:10:23;;;;;;;2.87;1.80;;;6.60;99.90;;;;;;5012943;28;20287;-73
2021/01/28 11:12:51;;;;;;;2.70;1.73;;;6.50;99.90;;;;;;5016337;28;20208;-75
2021/01/28 11:15:18;;;;;;;3.10;2.17;;;6.50;99.90;;;;;;5011196;28;20335;-75
2021/01/28 11:17:45;;;;;;;2.50;1.97;;;6.50;99.90;;;;;;5014045;28;20294;-74
2021/01/28 11:20:13;;;;;;;1.90;1.57;;;6.50;99.90;;;;;;5018431;28;20318;-75
2021/01/28 11:22:41;;;;;;;2.83;1.93;;;6.50;99.90;;;;;;5015854;28;20235;-74
2021/01/28 11:25:14;;;;;;;2.47;1.90;;;6.50;99.90;;;;;;5017874;28;20209;-74
2021/01/28 11:27:41;;;;;;;2.10;1.70;;;6.50;99.90;;;;;;5012048;28;20232;-74
2021/01/28 11:30:09;;;;;;;2.93;2.10;;;6.60;99.90;;;;;;5013294;28;20275;-74
2021/01/28 11:32:36;;;;;;;2.77;1.80;;;6.60;99.90;;;;;;5017089;28;20598;-75
2021/01/28 11:35:04;;;;;;;2.17;1.57;;;6.60;99.90;;;;;;5017623;28;20251;-76
2021/01/28 11:37:30;;;;;;;2.53;2.17;;;6.60;99.90;;;;;;5000347;28;20209;-75
2021/01/28 11:39:56;;;;;;;3.03;1.70;;;6.70;99.90;;;;;;5005122;28;20197;-75
2021/01/28 11:42:23;;;;;;;2.37;1.73;;;6.70;99.90;;;;;;5015449;28;20211;-75
2021/01/28 11:44:49;;;;;;;3.07;1.97;;;6.80;99.90;;;;;;5011075;28;20232;-74
2021/01/28 11:47:16;;;;;;;2.97;2.17;;;6.80;99.90;;;;;;5013562;28;20319;-75
2021/01/28 11:49:43;;;;;;;1.90;1.57;;;6.70;99.90;;;;;;4998077;28;21395;-75
2021/01/28 11:52:10;;;;;;;2.13;1.90;;;6.60;99.90;;;;;;5014390;28;20222;-73
2021/01/28 11:54:37;;;;;;;3.07;2.37;;;6.60;99.90;;;;;;5004612;28;20207;-73
2021/01/28 11:57:03;;;;;;;2.80;2.23;;;6.60;99.90;;;;;;5019931;28;20253;-75
2021/01/28 11:59:30;;;;;;;2.90;2.00;;;6.70;99.90;;;;;;5007662;28;20259;-75
2021/01/28 12:01:56;;;;;;;3.67;2.53;;;6.60;99.90;;;;;;5017469;28;20629;-75
2021/01/28 12:04:23;;;;;;;2.80;2.43;;;6.70;99.90;;;;;;5000323;28;20209;-74
2021/01/28 12:06:49;;;;;;;3.63;2.93;;;6.70;99.90;;;;;;5013006;28;20646;-75
2021/01/28 12:09:16;;;;;;;3.00;2.40;;;6.70;99.90;;;;;;5012944;28;20622;-75
2021/01/28 12:11:42;;;;;;;3.00;2.47;;;6.50;99.90;;;;;;5013853;28;20193;-75
2021/01/28 12:14:08;;;;;;;3.83;3.07;;;6.40;99.90;;;;;;5013336;28;20297;-75
2021/01/28 12:16:34;;;;;;;3.90;2.50;;;6.50;99.90;;;;;;5016624;28;20202;-75
2021/01/28 12:19:01;;;;;;;3.80;2.87;;;6.50;99.90;;;;;;5012125;28;20211;-75
2021/01/28 12:21:29;;;;;;;3.37;2.63;;;6.70;99.90;;;;;;5011236;28;20274;-75
2021/01/28 12:23:56;;;;;;;2.80;2.50;;;7.00;99.90;;;;;;5018306;28;20235;-75
2021/01/28 12:26:23;;;;;;;3.30;2.70;;;6.80;99.90;;;;;;5005361;28;20232;-75
2021/01/28 12:28:50;;;;;;;6.57;2.80;;;7.00;99.90;;;;;;5010940;28;20691;-74
2021/01/28 12:31:16;;;;;;;3.13;2.20;;;7.00;99.90;;;;;;5026760;28;20193;-75
2021/01/28 12:33:43;;;;;;;2.37;2.03;;;6.80;99.90;;;;;;5002541;28;20310;-75
2021/01/28 12:36:11;;;;;;;2.93;2.10;;;6.70;99.90;;;;;;4995157;28;20230;-75
2021/01/28 12:38:39;;;;;;;2.80;2.17;;;6.60;99.90;;;;;;4996513;28;20224;-74
2021/01/28 12:41:06;;;;;;;2.60;2.07;;;6.60;99.90;;;;;;5021020;28;21203;-75
2021/01/28 12:43:32;;;;;;;2.37;2.17;;;6.60;99.90;;;;;;5004399;28;20974;-76
2021/01/28 12:45:58;;;;;;;2.37;2.07;;;6.70;99.90;;;;;;5009506;28;20213;-75
2021/01/28 12:48:26;;;;;;;2.77;2.10;;;6.60;99.90;;;;;;5013611;28;20216;-75
2021/01/28 12:50:52;;;;;;;2.63;2.33;;;6.60;99.90;;;;;;4998698;28;20201;-75
2021/01/28 12:53:19;;;;;;;2.60;2.10;;;6.70;99.90;;;;;;5024070;28;20204;-75
2021/01/28 12:55:46;;;;;;;2.90;2.27;;;6.80;99.90;;;;;;5027658;28;20407;-74
2021/01/28 12:58:12;;;;;;;3.40;2.43;;;6.80;99.90;;;;;;5009270;28;20238;-75
2021/01/28 13:00:38;;;;;;;2.90;2.20;;;6.70;99.90;;;;;;5010249;28;22222;-75
2021/01/28 13:03:11;;;;;;;3.00;2.30;;;6.60;99.90;;;;;;5009423;28;20312;-76
2021/01/28 13:05:38;;;;;;;2.47;2.27;;;6.70;99.90;;;;;;5010261;28;20208;-75
2021/01/28 13:08:06;;;;;;;2.83;2.17;;;6.60;99.90;;;;;;5005540;28;20212;-75
2021/01/28 13:10:32;;;;;;;3.60;2.77;;;6.70;99.90;;;;;;4999809;28;20315;-75
2021/01/28 13:12:59;;;;;;;4.07;2.80;;;6.80;99.90;;;;;;5011922;28;20240;-75
2021/01/28 13:15:25;;;;;;;3.43;2.60;;;6.70;99.90;;;;;;4999704;28;20230;-75